Portada
METAR-TAF:

METAR-TAF

Aeropuertos :

Aeropuerto Internacional de Alepo

Alepo, Siria

latitud: 36-11N, longitud: 037-12E, altitud: 393 m

Observación

El informe se hizo hace 2 horas y 51 minutos, a las 21:00 UTC
Viento 10 kt del oeste-noroeste
Temperatura 27°C
Humedad 54%
Presión 1005 hPa
Visibilidad 10 km o más
sin nubes por debajo de 1500 m y sin presencia de cumulonimbus.

METAR: OSAP 212100Z 29010KT CAVOK 27/17 Q1005

Hora: 02:51 (23:51 UTC)

Pronóstico

El informe se hizo hace 1 hora y 51 minutos, a las 22:00 UTC
Pronóstico válido del 22 a las 00 UTC al 22 a las 24 UTC
Viento 8 kt del oeste-noroeste
Visibilidad 10 km o más
sin nubes por debajo de 1500 m y sin presencia de cumulonimbus.
Temporalmente
del 22 a las 17 UTC al 22 a las 21 UTC
Viento 15 kt del oeste-noroeste

TAF: OSAP 212200Z 2200/2224 30008KT CAVOK TEMPO 2217/2221 30015KT

Observaciones y pronósticos meteorológicos de más de 4000 aeropuertos (mensajes METAR y TAF).

Los puntos amarillos y rojos representan las estaciones disponibles.

Ponga el ratón en el punto deseado para ver el nombre de la estación.

Haga clic para ver las observaciones y los pronósticos meteorológicos.

Para cambiar el mapa : haga clic en los botones verdes con una cruz de color negro para hacer un zoom, en el botón verde con un guión para alejar o en las flechas verdes para mapas adyacentes.


METAR-TAF: